x

Pensacola - 115nm Ese Of Pensacola, Fl (42039) Wave Buoy

3:50am - Fri 29th May 2015 All times are CDT. -5 hours from GMT.

  • Sig Wave height 2.3ft
  • Swell Direction
  • Peak Period 7s
  • Average Period 5s
  • Wind
    16mph, 18mph gusts
  • Sea Temp 81°f
  • Air Temp 79°f
  • Sea Pressure 1017.4mb
  • Pensacola - 115nm Ese Of Pensacola, Fl
  • Pensacola - 115nm Ese Of Pensacola, Fl

More Historic Weather Station data

Upgrade to MSW Pro to gain access to the past 30 days of data for over 8000 Wavebouys and Weather Stations around the globe.

Join Pro

Comparision Forecast

View Surf forecast
   
Fri 05/29 3:50am 2.5ft 7s 5s 16 18 mph 1017.4mb 81f 79f
2:50am 2.5ft 7s 5s 11 13 mph 1017.5mb 81f 79f
1:50am 2.5ft 6s 5s 9
mph
1018.1mb 81f 79f
12:50am 2.5ft 7s 5s 7 9 mph 1018.8mb 81f 79f
Thu 05/28 11:50pm 3ft 6s 5s 7 9 mph 1019.6mb 81f 79f
10:50pm 3ft 6s 5s 7 9 mph 1020.2mb 81f 79f
9:50pm 3.5ft 6s 5s 7 9 mph 1020.1mb 81f 79f
8:50pm 3.5ft 6s 5s 9
mph
1019.8mb 81f 79f
7:50pm 3.5ft 5s 5s 11 13 mph 1019.3mb 81f 80f
6:50pm 3ft 5s 5s 11 13 mph 1019mb 81f 80f
5:50pm 2.5ft 5s 5s 13
mph
1018.9mb 81f 80f
4:50pm 2.5ft 5s 5s 11 13 mph 1019mb 81f 80f
3:50pm 2.5ft 7s 5s 9 11 mph 1019.4mb 81f 80f
2:50pm 2.5ft 8s 4s 11 13 mph 1019.4mb 82f 80f
1:50pm 2.5ft 8s 4s 11 13 mph 1019.8mb 82f 80f
12:50pm 2.5ft 8s 4s 11 13 mph 1020.1mb 82f 80f
11:50am 2.5ft 8s 4s 13 16 mph 1020.5mb 82f 80f
10:50am 2.5ft 6s 4s 13 16 mph 1020.6mb 82f 80f
9:50am 2.5ft 6s 4s 11
mph
1020.6mb 81f 80f
8:50am 2.5ft 6s 4s 11 13 mph 1020.4mb 81f 80f
7:50am 3ft 6s 4s 11 13 mph 1020.1mb 81f 80f
6:50am 3ft 6s 4s 13 16 mph 1019.7mb 81f 80f
5:50am 2.5ft 6s 4s 13 16 mph 1019.2mb 81f 80f
4:50am 2.5ft 6s 4s 13 16 mph 1018.8mb 81f 79f
3:50am 2.5ft 7s 4s 13 16 mph 1018.4mb 80f 79f
2:50am 3ft 6s 5s 13 16 mph 1017.9mb 80f 79f
1:50am 3ft 6s 5s 9 11 mph 1018.5mb 80f 79f
12:50am 3ft 6s 5s 9
mph
1019.1mb 80f 79f
Wed 05/27 11:50pm 3ft 6s 5s 4 7 mph 1020.7mb 80f 79f
10:50pm 3.5ft 6s  -  7 9 mph 1020.2mb 81f 79f
9:50pm 3.5ft 5s 5s 9 11 mph 1020.9mb 81f 78f
8:50pm 3.5ft 6s 5s 7 11 mph 1020.7mb 81f 80f
7:50pm 3.5ft 6s 5s 9 11 mph 1020mb 82f 80f
6:50pm 3.5ft 6s 5s 11 13 mph 1019.5mb 82f 80f
5:50pm 3.5ft 6s 5s 11 13 mph 1019.5mb 82f 81f
4:50pm 3.5ft 6s 5s 9
mph
1019.9mb 82f 81f
3:50pm 4ft 6s 5s 7 9 mph 1020.2mb 82f 81f
2:50pm 4ft 6s 5s 9 11 mph 1020.2mb 82f 81f
1:50pm 4.5ft 6s 5s 9 11 mph 1020.6mb 82f 81f
12:50pm 3.5ft 6s 5s 7 9 mph 1021.6mb 82f 81f
11:50am 4ft 5s 5s 7 9 mph 1022.1mb 82f 81f
10:50am 4ft 6s 5s 9 11 mph 1021.4mb 81f 80f
9:50am 3.5ft 6s 5s 13 16 mph 1020.8mb 81f 80f
8:50am 3.5ft 5s 5s 11 13 mph 1021.4mb 81f 80f
7:50am 4ft 5s 5s 11 13 mph 1021.3mb 81f 80f
6:50am 4ft 6s 5s 9 11 mph 1020.9mb 81f 80f
5:50am 4ft 5s 5s 13 16 mph 1020.2mb 81f 80f
4:50am 4.5ft 7s 5s 13 16 mph 1019.6mb 81f 80f
3:50am 4.5ft 7s 5s 20 25 mph 1018.5mb 81f 80f
2:50am 4ft 6s 5s 20
mph
1019.4mb 81f 79f
1:50am 3.5ft 7s 5s 20 25 mph 1019.8mb 81f 79f
12:50am 4ft 6s 5s 16 18 mph 1020.8mb 81f 80f
Tue 05/26 11:50pm 3.5ft 6s 5s 13 16 mph 1020.2mb 81f 80f
10:50pm 4ft 7s 5s 16 18 mph 1019.9mb 81f 80f
9:50pm 4ft 6s 5s 16 18 mph 1020.4mb 81f 81f
8:50pm 3.5ft 6s 5s 13
mph
1020.1mb 81f 81f
7:50pm 4ft 6s 5s 16 18 mph 1019.6mb 82f 81f
6:50pm 4ft 6s 5s 16 18 mph 1019.9mb 82f 81f
5:50pm 3.5ft 7s 5s 11 13 mph 1020mb 82f 81f
4:50pm 3.5ft 7s 5s 11 13 mph 1020.3mb 82f 81f
3:50pm 3.5ft 6s 5s 11 13 mph 1020.5mb 82f 82f
2:50pm 4ft 7s 5s 13 16 mph 1020.5mb 82f 81f
1:50pm 4ft 8s 5s 13 16 mph 1020.7mb 82f 81f
12:50pm 4.5ft 7s 5s 16 18 mph 1020.7mb 81f 81f
11:50am 4.5ft 7s 5s 16 18 mph 1021.1mb 81f 81f
10:50am 4.5ft 6s 5s 16 18 mph 1021mb 81f 81f
9:50am 3.5ft 7s 4s 18 20 mph 1020.6mb 81f 81f
8:50am 3.5ft 6s 5s 18 20 mph 1020.7mb 80f 81f
7:50am 3.5ft 7s 5s 16 20 mph 1020.7mb 80f 81f
6:50am 3.5ft 6s 5s 16 20 mph 1020.2mb 80f 81f
5:50am 3.5ft 6s 5s 16 18 mph 1019.5mb 80f 80f
4:50am 3.5ft 6s 5s 16 18 mph 1019.2mb 80f 80f
3:50am 3.5ft 6s 5s 13 16 mph 1019.1mb 80f 80f
2:50am 3.5ft 7s 5s 13 16 mph 1019.1mb 80f 80f
1:50am 3.5ft 7s 5s 13 18 mph 1019.2mb 80f 80f
12:50am 3.5ft 6s 5s 13
mph
1019.9mb 80f 80f
Mon 05/25 11:50pm 3.5ft 6s 4s 11 13 mph 1019.9mb 80f 80f
10:50pm 3.5ft 6s 5s 16 18 mph 1019.7mb 80f 80f
9:50pm 3.5ft 6s 5s 16 18 mph 1019.5mb 80f 80f
8:50pm 4ft 6s 5s 13 16 mph 1019.5mb 80f 80f
7:50pm 3.5ft 6s 5s 13 16 mph 1019.4mb 80f 80f
6:50pm 4.5ft 6s 5s 13 16 mph 1019.6mb 80f 80f
5:50pm 4.5ft 6s 5s 16 18 mph 1019.4mb 81f 80f
4:50pm 4.5ft 7s 5s 16 18 mph 1019.2mb 80f 81f
3:50pm 4.5ft 6s 5s 13 16 mph 1019.9mb 81f 81f
2:50pm 4.5ft 6s 5s 13 16 mph 1020.3mb 81f 81f
1:50pm 5ft 6s 5s 13 18 mph 1020.7mb 81f 81f
12:50pm 4.5ft 7s 5s 13 16 mph 1020.8mb 81f 81f
11:50am 4.5ft 6s 5s 16 18 mph 1021mb 80f 81f
10:50am 4.5ft 6s 5s 11 13 mph 1021.4mb 80f 81f
9:50am 4.5ft 6s 5s 11 13 mph 1020.9mb 80f 80f